Time;durP1;ratioP1;P1;durP2;ratioP2;P2;SDS_P1;SDS_P2;PMS_P1;PMS_P2;Temp;Humidity;BMP_temperature;BMP_pressure;BME280_temperature;BME280_humidity;BME280_pressure;Samples;Min_cycle;Max_cycle;Signal;HPM_P1;HPM_P2
2022/06/14 00:01:04;;;;;;;10.18;3.15;;;11.10;99.90;;;;;;5015617;28;20488;-74
2022/06/14 00:03:37;;;;;;;11.75;3.35;;;11.10;99.90;;;;;;5016297;28;20045;-74
2022/06/14 00:06:18;;;;;;;7.13;2.60;;;11.10;99.90;;;;;;5016862;28;20049;-74
2022/06/14 00:08:44;;;;;;;5.67;2.70;;;11.10;99.90;;;;;;5020410;28;20395;-74
2022/06/14 00:11:14;;;;;;;4.93;2.00;;;11.10;99.90;;;;;;5015045;28;20038;-74
2022/06/14 00:13:40;;;;;;;6.22;2.20;;;11.00;99.90;;;;;;5015893;28;20131;-74
2022/06/14 00:16:07;;;;;;;6.18;2.20;;;11.00;99.90;;;;;;5014988;28;20448;-74
2022/06/14 00:18:33;;;;;;;6.53;2.45;;;11.00;99.90;;;;;;5015935;28;20037;-74
2022/06/14 00:20:58;;;;;;;9.00;2.50;;;10.90;99.90;;;;;;5014894;28;20044;-74
2022/06/14 00:23:24;;;;;;;11.73;2.47;;;10.90;99.90;;;;;;5015824;28;20480;-74
2022/06/14 00:25:55;;;;;;;9.07;2.83;;;10.90;99.90;;;;;;5014467;28;20369;-74
2022/06/14 00:28:23;;;;;;;7.93;2.55;;;10.90;99.90;;;;;;5015491;28;20041;-74
2022/06/14 00:30:52;;;;;;;9.27;2.85;;;10.90;99.90;;;;;;5014633;28;20048;-74
2022/06/14 00:33:18;;;;;;;8.07;2.47;;;10.90;99.90;;;;;;5015550;28;20085;-74
2022/06/14 00:35:44;;;;;;;6.47;2.80;;;10.80;99.90;;;;;;5014901;28;20052;-74
2022/06/14 00:38:15;;;;;;;11.15;3.42;;;10.80;99.90;;;;;;5014414;28;20087;-74
2022/06/14 00:40:49;;;;;;;7.60;3.10;;;10.80;99.90;;;;;;5015715;28;20037;-74
2022/06/14 00:43:17;;;;;;;14.85;3.83;;;10.80;99.90;;;;;;5010829;28;20037;-74
2022/06/14 00:45:42;;;;;;;11.48;3.80;;;10.70;99.90;;;;;;5014249;28;20164;-74
2022/06/14 00:48:30;;;;;;;10.30;3.20;;;10.80;99.90;;;;;;5030998;28;20447;-74
2022/06/14 00:51:21;;;;;;;10.35;3.50;;;10.70;99.90;;;;;;5015119;28;20052;-74
2022/06/14 00:54:11;;;;;;;15.15;3.70;;;10.80;99.90;;;;;;5004165;28;20141;-74
2022/06/14 00:56:56;;;;;;;10.40;3.30;;;10.80;99.90;;;;;;4987772;28;20056;-74
2022/06/14 00:59:52;;;;;;;10.73;3.17;;;10.70;99.90;;;;;;5014871;28;20033;-74
2022/06/14 01:02:44;;;;;;;7.00;3.20;;;10.70;99.90;;;;;;5014922;28;20041;-74
2022/06/14 01:05:16;;;;;;;7.28;2.75;;;10.70;99.90;;;;;;4990740;28;20061;-74
2022/06/14 01:07:46;;;;;;;9.18;3.55;;;10.70;99.90;;;;;;5025848;28;20040;-74
2022/06/14 01:10:25;;;;;;;12.93;3.65;;;10.60;99.90;;;;;;5010339;28;20033;-74
2022/06/14 01:12:55;;;;;;;5.43;2.55;;;10.60;99.90;;;;;;5011502;28;20111;-74
2022/06/14 01:15:25;;;;;;;6.30;2.40;;;10.60;99.90;;;;;;5016640;28;20033;-74
2022/06/14 01:17:58;;;;;;;7.22;2.70;;;10.50;99.90;;;;;;5012147;28;20030;-74
2022/06/14 01:20:23;;;;;;;;;;;10.50;99.90;;;;;;5012537;28;20495;-74
2022/06/14 01:22:51;;;;;;;4.22;2.60;;;10.40;99.90;;;;;;5009845;28;19965;-74
2022/06/14 01:25:18;;;;;;;6.75;3.00;;;10.40;99.90;;;;;;5013380;28;20052;-74
2022/06/14 01:27:45;;;;;;;6.40;2.58;;;10.40;99.90;;;;;;4995672;28;20045;-74
2022/06/14 01:30:17;;;;;;;4.50;2.20;;;10.30;99.90;;;;;;5015297;28;20041;-74
2022/06/14 01:32:57;;;;;;;5.63;2.90;;;10.30;99.90;;;;;;5014145;28;20041;-74
2022/06/14 01:35:25;;;;;;;10.55;3.33;;;10.20;99.90;;;;;;5030056;28;20060;-74
2022/06/14 01:37:54;;;;;;;9.52;3.20;;;10.20;99.90;;;;;;5013919;28;20060;-74
2022/06/14 01:40:30;;;;;;;9.10;3.35;;;10.20;99.90;;;;;;5013751;28;20033;-74
2022/06/14 01:43:06;;;;;;;10.65;3.30;;;10.10;99.90;;;;;;5027202;28;20041;-74
2022/06/14 01:45:58;;;;;;;6.65;2.78;;;10.10;99.90;;;;;;5023513;28;20045;-74
2022/06/14 01:48:30;;;;;;;5.60;2.38;;;10.10;99.90;;;;;;5009409;28;20029;-74
2022/06/14 01:54:12;;;;;;;6.28;3.42;;;10.00;99.90;;;;;;5014258;28;20466;-74
2022/06/14 01:56:47;;;;;;;9.60;2.97;;;9.90;99.90;;;;;;5012691;28;20067;-75
2022/06/14 01:59:26;;;;;;;7.10;2.90;;;9.90;99.90;;;;;;4998630;28;20049;-74
2022/06/14 02:02:07;;;;;;;5.90;2.38;;;9.80;99.90;;;;;;5013639;28;20038;-74
2022/06/14 02:05:06;;;;;;;8.93;2.78;;;9.80;99.90;;;;;;5013188;28;20036;-75
2022/06/14 02:07:54;;;;;;;13.20;3.20;;;9.80;99.90;;;;;;5013769;28;20052;-75
2022/06/14 02:10:25;;;;;;;7.18;3.00;;;9.80;99.90;;;;;;5011083;28;20381;-74
2022/06/14 02:13:16;;;;;;;6.43;2.83;;;9.70;99.90;;;;;;5015273;28;20099;-75
2022/06/14 02:15:47;;;;;;;10.38;3.05;;;9.70;99.90;;;;;;5015235;28;20407;-74
2022/06/14 02:18:20;;;;;;;5.70;3.10;;;9.70;99.90;;;;;;5006868;28;20479;-74
2022/06/14 02:20:59;;;;;;;10.10;3.30;;;9.60;99.90;;;;;;5009268;28;20148;-74
2022/06/14 02:23:28;;;;;;;9.15;3.38;;;9.70;99.90;;;;;;5014529;28;20423;-74
2022/06/14 02:25:58;;;;;;;6.78;3.60;;;9.70;99.90;;;;;;5013472;28;20072;-75
2022/06/14 02:28:41;;;;;;;10.57;3.60;;;9.70;99.90;;;;;;5011897;28;20079;-74
2022/06/14 02:31:14;;;;;;;9.55;3.90;;;9.70;99.90;;;;;;5019747;28;20055;-75
2022/06/14 02:33:45;;;;;;;10.05;4.03;;;9.70;99.90;;;;;;5014018;28;20384;-74
2022/06/14 02:36:17;;;;;;;10.73;4.07;;;9.70;99.90;;;;;;5014665;28;20120;-74
2022/06/14 02:38:46;;;;;;;10.23;3.85;;;9.70;99.90;;;;;;5013720;28;20037;-74
2022/06/14 02:41:25;;;;;;;12.82;3.90;;;9.70;99.90;;;;;;5010921;28;20438;-74
2022/06/14 02:43:58;;;;;;;10.82;3.72;;;9.70;99.90;;;;;;5013077;28;20044;-74
2022/06/14 02:46:47;;;;;;;10.18;4.40;;;9.70;99.90;;;;;;5022243;28;20446;-75
2022/06/14 02:49:24;;;;;;;6.68;3.38;;;9.70;99.90;;;;;;5012731;28;20365;-75
2022/06/14 02:51:56;;;;;;;7.45;3.65;;;9.70;99.90;;;;;;5012005;28;20037;-74
2022/06/14 02:54:51;;;;;;;6.00;2.97;;;9.70;99.90;;;;;;5013093;28;20399;-75
2022/06/14 02:57:46;;;;;;;6.03;3.53;;;9.70;99.90;;;;;;4996766;28;20045;-75
2022/06/14 03:00:19;;;;;;;8.32;3.28;;;9.70;99.90;;;;;;5012675;28;20048;-74
2022/06/14 03:03:01;;;;;;;10.52;3.95;;;9.60;99.90;;;;;;5013011;28;20518;-75
2022/06/14 03:05:43;;;;;;;10.95;5.25;;;9.70;99.90;;;;;;5013161;28;20088;-75
2022/06/14 03:08:17;;;;;;;13.37;4.73;;;9.60;99.90;;;;;;5017704;28;20496;-75
2022/06/14 03:10:57;;;;;;;9.40;4.70;;;9.60;99.90;;;;;;5015893;28;20496;-74
2022/06/14 03:13:26;;;;;;;8.25;4.45;;;9.60;99.90;;;;;;5010366;28;20511;-75
2022/06/14 03:16:24;;;;;;;10.00;4.78;;;9.60;99.90;;;;;;5013394;28;20120;-74
2022/06/14 03:18:59;;;;;;;9.20;4.70;;;9.70;99.90;;;;;;5022382;28;20462;-74
2022/06/14 03:21:31;;;;;;;9.80;4.40;;;9.60;99.90;;;;;;5011110;28;20084;-74
2022/06/14 03:24:06;;;;;;;11.55;4.20;;;9.60;99.90;;;;;;5012270;28;20041;-74
2022/06/14 03:26:52;;;;;;;12.88;3.88;;;9.70;99.90;;;;;;5025856;28;20037;-74
2022/06/14 03:29:38;;;;;;;7.93;3.78;;;9.70;99.90;;;;;;5010768;28;20416;-75
2022/06/14 03:32:17;;;;;;;8.98;4.50;;;9.70;99.90;;;;;;5014545;28;20103;-75
2022/06/14 03:34:59;;;;;;;7.72;4.40;;;9.70;99.90;;;;;;5029465;28;20091;-74
2022/06/14 03:37:25;;;;;;;8.20;4.77;;;9.70;99.90;;;;;;5016121;28;20049;-74
2022/06/14 03:39:58;;;;;;;6.72;3.67;;;9.70;99.90;;;;;;5015141;28;20399;-75
2022/06/14 03:42:24;;;;;;;11.57;4.35;;;9.70;99.90;;;;;;5032630;28;20052;-74
2022/06/14 03:44:50;;;;;;;12.32;5.45;;;9.60;99.90;;;;;;5020890;28;20044;-74
2022/06/14 03:47:23;;;;;;;11.15;4.55;;;9.60;99.90;;;;;;5016503;28;20033;-74
2022/06/14 03:50:08;;;;;;;11.85;4.93;;;9.60;99.90;;;;;;5019800;28;20086;-75
2022/06/14 03:53:11;;;;;;;13.45;5.10;;;9.70;99.90;;;;;;5019563;28;20132;-75
2022/06/14 03:55:42;;;;;;;;;;;9.70;99.90;;;;;;5028717;28;20049;-74
2022/06/14 03:58:36;;;;;;;12.60;5.43;;;9.80;99.90;;;;;;5028936;28;19916;-74
2022/06/14 04:01:13;;;;;;;10.15;5.18;;;9.80;99.90;;;;;;5023003;28;20121;-74
2022/06/14 04:03:55;;;;;;;8.40;4.60;;;9.80;99.90;;;;;;5016995;28;20438;-74
2022/06/14 04:06:48;;;;;;;11.13;6.07;;;9.90;99.90;;;;;;5011318;28;20132;-74
2022/06/14 04:09:41;;;;;;;11.15;5.32;;;9.90;99.90;;;;;;5017422;28;20038;-74
2022/06/14 04:12:24;;;;;;;10.27;5.60;;;10.00;99.90;;;;;;5027786;28;20084;-75
2022/06/14 04:14:54;;;;;;;;;;;10.00;99.90;;;;;;5015864;28;20049;-74
2022/06/14 04:18:02;;;;;;;10.68;4.90;;;10.10;99.90;;;;;;5015309;28;20351;-74
2022/06/14 04:20:43;;;;;;;13.13;5.47;;;10.10;99.90;;;;;;5015852;28;20033;-75
2022/06/14 04:23:18;;;;;;;15.18;5.68;;;10.10;99.90;;;;;;5015288;28;20026;-75
2022/06/14 04:26:00;;;;;;;9.93;5.57;;;10.10;99.90;;;;;;5015809;28;20037;-74
2022/06/14 04:28:54;;;;;;;16.02;6.28;;;10.00;99.90;;;;;;5014906;28;20120;-74
2022/06/14 04:31:56;;;;;;;11.25;5.90;;;10.00;99.90;;;;;;5014724;28;20044;-74
2022/06/14 04:34:57;;;;;;;13.18;6.13;;;10.10;99.90;;;;;;5005610;28;20080;-74
2022/06/14 04:37:38;;;;;;;11.82;6.22;;;10.00;99.90;;;;;;4998218;28;20045;-75
2022/06/14 04:40:12;;;;;;;12.32;5.63;;;10.10;99.90;;;;;;5015475;28;20091;-74
2022/06/14 04:42:54;;;;;;;12.95;6.28;;;10.10;99.90;;;;;;5010806;28;20041;-74
2022/06/14 04:45:40;;;;;;;9.30;5.82;;;10.20;99.90;;;;;;5008630;28;20114;-74
2022/06/14 04:48:09;;;;;;;13.63;6.60;;;10.20;99.90;;;;;;5014183;28;20049;-74
2022/06/14 04:50:43;;;;;;;11.50;6.25;;;10.20;99.90;;;;;;5014731;28;20128;-74
2022/06/14 04:53:26;;;;;;;10.48;6.40;;;10.30;99.90;;;;;;5015148;28;20045;-74
2022/06/14 04:56:01;;;;;;;15.23;6.93;;;10.30;99.90;;;;;;5018798;28;20048;-74
2022/06/14 04:58:43;;;;;;;14.02;6.68;;;10.30;99.90;;;;;;5015021;28;20037;-74
2022/06/14 05:01:16;;;;;;;14.35;6.63;;;10.40;99.90;;;;;;5014046;28;20088;-74
2022/06/14 05:03:58;;;;;;;20.75;7.15;;;10.50;99.90;;;;;;5013526;28;20044;-74
2022/06/14 05:06:27;;;;;;;;;;;10.50;99.90;;;;;;4994347;28;20075;-74
2022/06/14 05:09:04;;;;;;;14.60;7.00;;;10.60;99.90;;;;;;5023297;28;19967;-74
2022/06/14 05:11:50;;;;;;;15.75;7.20;;;10.60;99.90;;;;;;5015305;28;20045;-74
2022/06/14 05:14:21;;;;;;;15.75;7.32;;;10.60;99.90;;;;;;5011949;28;20037;-74
2022/06/14 05:16:55;;;;;;;17.77;6.95;;;10.70;99.90;;;;;;5013466;28;20087;-74
2022/06/14 05:19:32;;;;;;;14.88;7.18;;;10.80;99.90;;;;;;5012882;28;20105;-74
2022/06/14 05:22:11;;;;;;;11.38;6.30;;;10.90;99.90;;;;;;5012199;28;20037;-74
2022/06/14 05:24:37;;;;;;;17.25;6.43;;;11.00;99.90;;;;;;5030206;28;20045;-74
2022/06/14 05:27:33;;;;;;;14.05;6.60;;;11.00;99.90;;;;;;5012972;28;20042;-74
2022/06/14 05:30:20;;;;;;;18.50;6.45;;;11.10;99.90;;;;;;5012089;28;20041;-74
2022/06/14 05:33:04;;;;;;;11.60;5.53;;;11.20;99.90;;;;;;4999932;28;20496;-74
2022/06/14 05:35:45;;;;;;;16.20;5.88;;;11.30;99.90;;;;;;5031780;28;20042;-74
2022/06/14 05:38:36;;;;;;;16.85;6.30;;;11.40;99.90;;;;;;5007667;28;20041;-74
2022/06/14 05:41:11;;;;;;;15.80;6.22;;;11.50;99.90;;;;;;5014559;28;20511;-74
2022/06/14 05:43:46;;;;;;;16.83;5.80;;;11.60;99.90;;;;;;5013724;28;20124;-75
2022/06/14 05:46:17;;;;;;;16.33;5.05;;;11.70;99.90;;;;;;5021095;28;20034;-74
2022/06/14 05:48:52;;;;;;;15.55;4.72;;;11.80;99.90;;;;;;5012251;28;20064;-74
2022/06/14 05:51:23;;;;;;;18.92;5.07;;;12.00;99.90;;;;;;5010981;28;20068;-74
2022/06/14 05:53:57;;;;;;;16.65;4.60;;;12.00;99.90;;;;;;5012919;28;20048;-74
2022/06/14 05:56:42;;;;;;;16.45;4.65;;;12.10;99.90;;;;;;5012143;28;20033;-74
2022/06/14 05:59:43;;;;;;;13.40;4.07;;;12.20;99.90;;;;;;5013035;28;20132;-75
2022/06/14 06:02:36;;;;;;;15.75;4.93;;;12.30;99.90;;;;;;5011840;28;20096;-74
2022/06/14 06:05:21;;;;;;;15.57;4.88;;;12.40;99.90;;;;;;5028721;28;20649;-74
2022/06/14 06:07:55;;;;;;;14.68;4.20;;;12.60;99.90;;;;;;5009866;28;20152;-74
2022/06/14 06:10:37;;;;;;;16.45;4.53;;;12.70;99.90;;;;;;5011956;28;20044;-74
2022/06/14 06:13:22;;;;;;;18.73;5.20;;;12.70;99.90;;;;;;5010193;28;20117;-74
2022/06/14 06:15:56;;;;;;;16.35;4.93;;;12.80;99.90;;;;;;5027600;28;20037;-74
2022/06/14 06:18:34;;;;;;;14.98;4.53;;;13.00;99.90;;;;;;5012195;28;20034;-74
2022/06/14 06:21:43;;;;;;;17.10;4.63;;;13.10;99.90;;;;;;5005531;28;20407;-74
2022/06/14 06:24:20;;;;;;;19.60;4.70;;;13.20;99.90;;;;;;4990101;28;20126;-74
2022/06/14 06:26:52;;;;;;;11.75;3.90;;;13.30;99.90;;;;;;4998720;28;20084;-74
2022/06/14 06:29:22;;;;;;;;;;;13.40;99.90;;;;;;5015442;28;20029;-74
2022/06/14 06:31:48;;;;;;;13.50;4.88;;;13.50;99.90;;;;;;5014189;28;19932;-74
2022/06/14 06:34:15;;;;;;;16.90;4.18;;;13.60;99.90;;;;;;5012382;28;20301;-74
2022/06/14 06:36:56;;;;;;;14.98;3.80;;;13.70;99.90;;;;;;5028527;28;20068;-74
2022/06/14 06:39:25;;;;;;;11.68;3.25;;;13.80;99.90;;;;;;5017091;28;20057;-74
2022/06/14 06:42:04;;;;;;;11.60;2.95;;;13.80;99.90;;;;;;5013497;28;20041;-74
2022/06/14 06:45:02;;;;;;;11.32;3.17;;;14.00;99.90;;;;;;5011381;28;20087;-75
2022/06/14 06:48:07;;;;;;;8.80;3.17;;;14.10;99.90;;;;;;5009649;28;20463;-74
2022/06/14 06:50:38;;;;;;;8.25;2.60;;;14.30;99.90;;;;;;4958628;28;20034;-74
2022/06/14 06:53:06;;;;;;;9.57;3.17;;;14.30;99.90;;;;;;5002752;28;20504;-74
2022/06/14 06:55:41;;;;;;;11.38;3.20;;;14.50;99.90;;;;;;5011560;28;20129;-75
2022/06/14 06:58:18;;;;;;;8.55;3.67;;;14.60;99.90;;;;;;5017242;28;20046;-74
2022/06/14 07:00:45;;;;;;;10.20;3.28;;;14.70;99.90;;;;;;5012712;28;20144;-74
2022/06/14 07:03:20;;;;;;;10.40;3.28;;;14.80;99.90;;;;;;5014616;28;20047;-74
2022/06/14 07:05:52;;;;;;;9.55;3.05;;;15.00;99.90;;;;;;5015830;28;20050;-74
2022/06/14 07:08:28;;;;;;;6.82;2.88;;;15.10;99.90;;;;;;5016432;28;20041;-75
2022/06/14 07:10:55;;;;;;;10.52;3.17;;;15.20;99.90;;;;;;5016078;28;20124;-75
2022/06/14 07:13:33;;;;;;;7.63;2.58;;;15.20;99.90;;;;;;5020503;28;20045;-75
2022/06/14 07:16:24;;;;;;;10.15;2.85;;;15.30;99.90;;;;;;5015432;28;20037;-75
2022/06/14 07:19:15;;;;;;;9.40;2.80;;;15.40;99.90;;;;;;5027877;28;20049;-74
2022/06/14 07:21:45;;;;;;;10.00;2.58;;;15.60;99.90;;;;;;5017481;28;20045;-75
2022/06/14 07:24:24;;;;;;;11.77;2.90;;;15.80;99.90;;;;;;5011784;28;20045;-74
2022/06/14 07:26:54;;;;;;;6.93;2.45;;;15.80;99.90;;;;;;5005708;28;20091;-74
2022/06/14 07:29:41;;;;;;;8.75;2.58;;;15.80;99.90;;;;;;5014663;28;20041;-74
2022/06/14 07:32:26;;;;;;;9.07;2.47;;;15.90;99.90;;;;;;5013408;28;20045;-74
2022/06/14 07:34:53;;;;;;;12.18;2.83;;;16.10;99.90;;;;;;5029604;28;20042;-74
2022/06/14 07:37:36;;;;;;;9.35;2.30;;;16.30;99.90;;;;;;5015543;28;20045;-74
2022/06/14 07:40:21;;;;;;;8.35;2.40;;;16.40;99.90;;;;;;5014783;28;20112;-75
2022/06/14 07:43:17;;;;;;;7.03;2.30;;;16.70;99.90;;;;;;5022545;28;20052;-74
2022/06/14 07:45:48;;;;;;;8.20;2.22;;;16.90;99.90;;;;;;4987968;28;20049;-74
2022/06/14 07:48:38;;;;;;;8.77;1.98;;;17.00;99.90;;;;;;5017827;28;20052;-75
2022/06/14 07:51:15;;;;;;;8.07;2.00;;;17.10;99.90;;;;;;4999279;28;20136;-75
2022/06/14 07:54:03;;;;;;;9.30;2.13;;;17.30;99.90;;;;;;5031008;28;20128;-75
2022/06/14 07:56:43;;;;;;;6.30;2.08;;;17.40;99.90;;;;;;5031325;28;20081;-74
2022/06/14 07:59:16;;;;;;;4.38;1.60;;;17.50;99.90;;;;;;5014092;28;20517;-74
2022/06/14 08:01:52;;;;;;;6.32;1.58;;;17.70;99.90;;;;;;5012804;28;20045;-75
2022/06/14 08:04:26;;;;;;;7.82;1.83;;;17.90;99.90;;;;;;4999395;28;20038;-75
2022/06/14 08:07:09;;;;;;;4.95;2.05;;;18.10;99.90;;;;;;5002129;28;20044;-75
2022/06/14 08:09:53;;;;;;;9.75;2.42;;;18.20;99.90;;;;;;5015135;28;20124;-75
2022/06/14 08:12:22;;;;;;;9.63;2.45;;;18.30;99.90;;;;;;5032141;28;20033;-75
2022/06/14 08:14:53;;;;;;;6.07;1.80;;;18.40;99.90;;;;;;5021173;28;20487;-75
2022/06/14 08:17:40;;;;;;;6.65;1.80;;;18.30;99.90;;;;;;5014263;28;20403;-75
2022/06/14 08:20:26;;;;;;;10.43;2.65;;;18.30;99.90;;;;;;5014205;28;20164;-75
2022/06/14 08:23:09;;;;;;;5.68;2.00;;;18.00;99.90;;;;;;4998649;28;20045;-75
2022/06/14 08:25:40;;;;;;;8.27;1.90;;;17.70;99.90;;;;;;5004770;28;20047;-75
2022/06/14 08:28:12;;;;;;;5.63;1.83;;;17.60;99.90;;;;;;5011075;28;20103;-75
2022/06/14 08:31:03;;;;;;;6.80;1.80;;;17.70;99.90;;;;;;5010376;28;20125;-74
2022/06/14 08:33:35;;;;;;;6.15;1.90;;;17.60;99.90;;;;;;5011757;28;20288;-75
2022/06/14 08:36:10;;;;;;;6.03;2.00;;;17.60;99.90;;;;;;5010086;28;20041;-75
2022/06/14 08:38:42;;;;;;;8.57;2.10;;;17.70;99.90;;;;;;5029380;28;20037;-74
2022/06/14 08:41:26;;;;;;;8.95;1.70;;;17.80;99.90;;;;;;4995848;28;20049;-74
2022/06/14 08:44:18;;;;;;;9.38;2.15;;;18.10;99.90;;;;;;5018186;28;20053;-74
2022/06/14 08:46:59;;;;;;;6.63;2.13;;;18.30;99.90;;;;;;5008465;28;20053;-74
2022/06/14 08:49:42;;;;;;;7.25;1.83;;;18.50;99.90;;;;;;4996213;28;20554;-74
2022/06/14 08:52:32;;;;;;;5.95;1.63;;;18.50;99.90;;;;;;5010880;28;20045;-74
2022/06/14 08:55:19;;;;;;;7.10;2.05;;;18.40;99.90;;;;;;5018637;28;20052;-74
2022/06/14 08:58:18;;;;;;;8.70;1.90;;;18.30;99.90;;;;;;5008089;28;20099;-74
2022/06/14 09:01:09;;;;;;;6.18;1.85;;;18.10;99.90;;;;;;4990394;28;20052;-75
2022/06/14 09:03:47;;;;;;;8.20;2.50;;;18.20;99.90;;;;;;4996679;28;20450;-74
2022/06/14 09:06:27;;;;;;;4.65;2.00;;;18.20;99.90;;;;;;5010617;28;20571;-74
2022/06/14 09:09:39;;;;;;;4.03;1.70;;;18.40;99.90;;;;;;5005474;28;21568;-74
2022/06/14 09:12:18;;;;;;;5.80;1.50;;;18.70;99.90;;;;;;5028358;28;20506;-74
2022/06/14 09:15:16;;;;;;;6.80;1.65;;;18.80;98.30;;;;;;5025951;28;20539;-74
2022/06/14 09:18:12;;;;;;;5.38;1.65;;;18.90;92.40;;;;;;5014227;28;20068;-74
2022/06/14 09:21:05;;;;;;;6.70;1.50;;;19.10;99.20;;;;;;4998450;28;20048;-74
2022/06/14 09:24:04;;;;;;;4.57;1.67;;;19.50;99.90;;;;;;5009758;28;20590;-75
2022/06/14 09:26:59;;;;;;;7.78;1.67;;;19.80;99.80;;;;;;5012817;28;20387;-74
2022/06/14 09:29:46;;;;;;;5.50;1.50;;;20.10;94.60;;;;;;5024029;28;22432;-75
2022/06/14 09:36:06;;;;;;;4.80;1.60;;;20.40;91.60;;;;;;5006695;28;20411;-76
2022/06/14 09:39:11;;;;;;;5.03;1.55;;;20.30;92.30;;;;;;5012608;28;20036;-76
2022/06/14 09:42:01;;;;;;;4.22;1.50;;;20.10;94.50;;;;;;4934293;28;20042;-75
2022/06/14 09:45:02;;;;;;;5.72;1.48;;;19.90;97.40;;;;;;5007490;28;20491;-76
2022/06/14 09:47:49;;;;;;;4.57;1.50;;;19.80;97.00;;;;;;5010882;28;20427;-75
2022/06/14 09:50:37;;;;;;;4.88;1.35;;;19.70;95.10;;;;;;5005359;28;20041;-76
2022/06/14 09:53:43;;;;;;;5.00;1.50;;;19.60;97.50;;;;;;5024528;28;20059;-75
2022/06/14 09:56:17;;;;;;;5.68;1.40;;;19.50;99.90;;;;;;5024735;28;20124;-76
2022/06/14 09:59:07;;;;;;;5.85;1.50;;;19.40;99.90;;;;;;5006144;28;20121;-76
2022/06/14 10:02:02;;;;;;;8.00;1.60;;;19.50;98.40;;;;;;5022716;28;20087;-76
2022/06/14 10:04:57;;;;;;;2.58;1.10;;;19.40;96.10;;;;;;5006499;28;20049;-76
2022/06/14 10:07:28;;;;;;;8.75;1.70;;;19.50;96.50;;;;;;4968160;28;20045;-75
2022/06/14 10:10:17;;;;;;;4.87;1.43;;;19.50;97.60;;;;;;5019886;28;20128;-75
2022/06/14 10:13:31;;;;;;;5.53;1.52;;;19.70;96.80;;;;;;5003278;28;20297;-75
2022/06/14 10:16:23;;;;;;;4.45;1.33;;;19.90;98.30;;;;;;5018776;28;20064;-74
2022/06/14 10:19:16;;;;;;;4.57;1.40;;;20.40;94.40;;;;;;5007400;28;20115;-75
2022/06/14 10:22:00;;;;;;;5.80;1.55;;;20.60;88.60;;;;;;5010077;28;20045;-74
2022/06/14 10:24:37;;;;;;;3.42;1.40;;;20.70;87.60;;;;;;5007119;28;20488;-74
2022/06/14 10:30:16;;;;;;;4.68;1.23;;;20.20;85.40;;;;;;5010347;28;20073;-75
2022/06/14 10:32:55;;;;;;;4.47;1.13;;;20.20;86.10;;;;;;5011216;28;20120;-74
2022/06/14 10:35:35;;;;;;;4.78;1.50;;;20.10;87.40;;;;;;5012004;28;20029;-74
2022/06/14 10:38:19;;;;;;;4.43;1.70;;;20.00;87.00;;;;;;5003369;28;20082;-74
2022/06/14 10:40:54;;;;;;;4.82;1.60;;;20.30;91.10;;;;;;5016970;28;20594;-74
2022/06/14 10:43:46;;;;;;;2.63;1.05;;;20.70;89.80;;;;;;5011317;28;20037;-75
2022/06/14 10:46:39;;;;;;;3.40;1.20;;;21.20;92.40;;;;;;5014182;28;20040;-75
2022/06/14 10:49:29;;;;;;;6.25;1.50;;;21.50;74.90;;;;;;5012329;28;20046;-74
2022/06/14 10:52:25;;;;;;;3.67;1.60;;;21.80;75.70;;;;;;5010707;28;20073;-75
2022/06/14 10:55:08;;;;;;;4.63;1.20;;;21.90;72.30;;;;;;4998036;28;20072;-74
2022/06/14 10:58:11;;;;;;;4.03;1.20;;;21.70;72.50;;;;;;5012578;28;20415;-74
2022/06/14 11:01:05;;;;;;;4.07;1.70;;;21.60;67.10;;;;;;4984060;28;20053;-74
2022/06/14 11:03:43;;;;;;;4.00;1.35;;;21.30;70.30;;;;;;5008280;28;20033;-74
2022/06/14 11:06:31;;;;;;;3.72;1.40;;;21.20;77.70;;;;;;5028705;28;20115;-74
2022/06/14 11:08:59;;;;;;;4.90;1.27;;;21.30;76.50;;;;;;5017418;28;20091;-75
2022/06/14 11:11:46;;;;;;;4.38;1.30;;;21.30;77.50;;;;;;5029235;28;20143;-74
2022/06/14 11:14:40;;;;;;;5.90;1.45;;;21.30;75.60;;;;;;5021477;28;20030;-74
2022/06/14 11:17:32;;;;;;;2.55;1.13;;;21.70;76.20;;;;;;5012172;28;20038;-74
2022/06/14 11:20:25;;;;;;;2.58;1.30;;;21.60;73.60;;;;;;5012378;28;20061;-75
2022/06/14 11:22:58;;;;;;;5.18;1.60;;;22.20;76.70;;;;;;5012237;28;20048;-74
2022/06/14 11:25:47;;;;;;;2.22;0.95;;;22.60;68.50;;;;;;5012549;28;20097;-74
2022/06/14 11:28:36;;;;;;;6.30;1.33;;;22.80;70.80;;;;;;5011093;28;20029;-74
2022/06/14 11:31:30;;;;;;;5.82;1.35;;;23.20;70.70;;;;;;5010929;28;20041;-74
2022/06/14 11:34:08;;;;;;;7.93;1.60;;;23.40;59.00;;;;;;5005371;28;20076;-74
2022/06/14 11:37:01;;;;;;;6.43;1.20;;;23.20;62.70;;;;;;5009842;28;20053;-74
2022/06/14 11:39:26;;;;;;;5.03;1.80;;;23.30;62.70;;;;;;5025189;28;20510;-74
2022/06/14 11:41:53;;;;;;;2.40;1.25;;;23.30;59.00;;;;;;5013868;28;20140;-74
2022/06/14 11:44:58;;;;;;;4.35;1.27;;;23.70;63.20;;;;;;5016107;28;20033;-74
2022/06/14 11:47:26;;;;;;;3.50;1.20;;;23.60;60.30;;;;;;4974113;28;20057;-74
2022/06/14 11:50:12;;;;;;;3.17;1.40;;;23.60;62.10;;;;;;5020272;28;20037;-74
2022/06/14 11:52:45;;;;;;;2.60;1.15;;;23.80;60.40;;;;;;5013260;28;20037;-75
2022/06/14 11:55:24;;;;;;;6.70;1.50;;;23.90;61.90;;;;;;5034162;22;20025;-73
2022/06/14 11:57:55;;;;;;;5.03;1.50;;;24.00;63.50;;;;;;5037459;28;20127;-74
2022/06/14 12:00:36;;;;;;;7.28;1.52;;;23.90;65.00;;;;;;5036848;28;20063;-73
2022/06/14 12:03:23;;;;;;;4.05;1.40;;;23.60;62.70;;;;;;5035980;28;20047;-74
2022/06/14 12:06:26;;;;;;;2.05;1.10;;;23.80;61.10;;;;;;5032511;28;20033;-74
2022/06/14 12:09:30;;;;;;;4.22;1.30;;;23.90;64.10;;;;;;5034262;28;20052;-74
2022/06/14 12:12:10;;;;;;;5.03;1.30;;;24.00;62.10;;;;;;5052066;28;20505;-74
2022/06/14 12:14:54;;;;;;;4.45;1.20;;;23.90;62.40;;;;;;5034017;28;20048;-74
2022/06/14 12:17:36;;;;;;;4.55;1.42;;;23.60;64.50;;;;;;5028408;28;20513;-74
2022/06/14 12:20:07;;;;;;;3.30;1.45;;;23.20;62.10;;;;;;5038499;28;20045;-74
2022/06/14 12:22:42;;;;;;;3.67;1.30;;;23.10;62.90;;;;;;5039100;28;20040;-74
2022/06/14 12:28:30;;;;;;;3.90;1.42;;;23.00;61.50;;;;;;5035435;28;20087;-75
2022/06/14 12:31:18;;;;;;;6.00;1.42;;;23.10;59.90;;;;;;5033724;28;20060;-74
2022/06/14 12:33:56;;;;;;;3.80;1.30;;;23.10;61.30;;;;;;5034406;28;20518;-75
2022/06/14 12:36:40;;;;;;;4.45;1.45;;;23.00;61.50;;;;;;5038982;28;20041;-75
2022/06/14 12:39:13;;;;;;;4.18;1.15;;;22.80;61.30;;;;;;5034344;28;20506;-75
2022/06/14 12:42:01;;;;;;;3.25;1.30;;;22.90;60.90;;;;;;5033418;28;20041;-74
2022/06/14 12:44:53;;;;;;;4.38;1.58;;;23.00;59.80;;;;;;5030901;28;20038;-76
2022/06/14 12:47:55;;;;;;;3.38;1.23;;;23.50;60.20;;;;;;5027085;28;20045;-75
2022/06/14 12:50:31;;;;;;;2.63;1.10;;;24.00;60.20;;;;;;5051418;28;20099;-75
2022/06/14 12:53:06;;;;;;;4.40;1.40;;;24.50;62.00;;;;;;5053482;28;20497;-74
2022/06/14 12:55:41;;;;;;;2.65;1.08;;;24.80;58.20;;;;;;5047833;28;20483;-74
2022/06/14 12:58:13;;;;;;;4.70;1.40;;;24.90;58.50;;;;;;5056670;28;20041;-74
2022/06/14 13:00:52;;;;;;;2.90;1.17;;;25.00;59.60;;;;;;5039143;28;20449;-75
2022/06/14 13:03:35;;;;;;;2.20;1.20;;;24.90;57.50;;;;;;5030580;28;20124;-74
2022/06/14 13:06:31;;;;;;;1.83;1.00;;;24.80;58.80;;;;;;5031186;28;20045;-74
2022/06/14 13:09:27;;;;;;;4.13;1.10;;;24.60;59.10;;;;;;5055159;28;20445;-74
2022/06/14 13:12:11;;;;;;;3.35;1.23;;;24.50;57.30;;;;;;5004147;28;20692;-74
2022/06/14 13:14:47;;;;;;;2.60;1.00;;;24.40;56.20;;;;;;5016979;28;20390;-75
2022/06/14 13:17:41;;;;;;;3.75;1.00;;;24.30;55.40;;;;;;5035127;28;20469;-74
2022/06/14 13:20:46;;;;;;;3.55;1.05;;;24.20;59.60;;;;;;5033595;28;20457;-74
2022/06/14 13:23:29;;;;;;;3.50;1.02;;;24.10;55.30;;;;;;5010001;28;20060;-74
2022/06/14 13:26:17;;;;;;;2.67;1.23;;;23.90;58.70;;;;;;5035607;28;20462;-74
2022/06/14 13:29:05;;;;;;;2.95;1.10;;;23.90;57.50;;;;;;5032151;28;20603;-74
2022/06/14 13:32:17;;;;;;;1.70;1.10;;;23.90;57.60;;;;;;5051010;28;20043;-74
2022/06/14 13:35:08;;;;;;;4.47;1.10;;;23.80;59.50;;;;;;5023226;28;20098;-75
2022/06/14 13:37:41;;;;;;;2.60;1.15;;;23.70;56.90;;;;;;5030400;28;20437;-74
2022/06/14 13:40:25;;;;;;;5.07;1.10;;;23.60;57.30;;;;;;5034555;28;20041;-74
2022/06/14 13:43:10;;;;;;;3.60;1.30;;;23.50;60.10;;;;;;5031912;28;20094;-74
2022/06/14 13:45:45;;;;;;;1.75;0.95;;;23.40;61.10;;;;;;5046886;28;20041;-74
2022/06/14 13:48:19;;;;;;;2.80;1.33;;;23.40;61.00;;;;;;5030153;28;20385;-74
2022/06/14 13:50:58;;;;;;;2.80;1.10;;;23.30;62.50;;;;;;5034024;28;20094;-75
2022/06/14 13:53:28;;;;;;;2.95;0.90;;;23.30;60.70;;;;;;5032181;28;20041;-74
2022/06/14 13:56:12;;;;;;;6.07;1.30;;;23.10;60.90;;;;;;5047628;28;20048;-75
2022/06/14 13:58:46;;;;;;;4.15;1.20;;;23.00;57.30;;;;;;5034180;28;20099;-75
2022/06/14 14:01:19;;;;;;;2.83;1.13;;;22.70;54.60;;;;;;5029338;28;20048;-75
2022/06/14 14:03:55;;;;;;;6.30;1.38;;;22.30;54.90;;;;;;5045932;28;20457;-75
2022/06/14 14:06:38;;;;;;;3.45;1.10;;;22.30;59.70;;;;;;5048827;28;20049;-75
2022/06/14 14:09:13;;;;;;;2.15;0.90;;;22.30;62.50;;;;;;5038111;28;20040;-76